createdAt,value
2019-04-19T00:01:44.801Z,8.79
2019-04-19T00:04:12.146Z,8.80
2019-04-19T00:06:45.038Z,8.75
2019-04-19T00:09:28.530Z,8.76
2019-04-19T00:11:59.111Z,8.78
2019-04-19T00:14:18.973Z,8.81
2019-04-19T00:16:49.023Z,8.79
2019-04-19T00:19:33.229Z,8.76
2019-04-19T00:22:23.927Z,8.73
2019-04-19T00:24:22.690Z,8.73
2019-04-19T00:26:52.850Z,8.80
2019-04-19T00:29:36.897Z,8.78
2019-04-19T00:32:11.812Z,8.82
2019-04-19T00:34:25.414Z,8.78
2019-04-19T00:36:55.359Z,8.80
2019-04-19T00:40:06.434Z,8.82
2019-04-19T00:43:06.532Z,8.80
2019-04-19T00:45:53.844Z,8.81
2019-04-19T00:48:25.119Z,8.83
2019-04-19T00:50:54.069Z,8.79
2019-04-19T00:53:24.365Z,8.81
2019-04-19T00:55:52.167Z,8.76
2019-04-19T00:58:18.477Z,8.75
2019-04-19T01:00:44.528Z,8.80
2019-04-19T01:03:16.174Z,8.79
2019-04-19T01:05:55.400Z,8.83
2019-04-19T01:08:21.282Z,8.81
2019-04-19T01:11:06.688Z,8.79
2019-04-19T01:13:38.193Z,8.82
2019-04-19T01:16:07.743Z,8.80
2019-04-19T01:18:31.950Z,8.83
2019-04-19T01:20:54.237Z,8.86
2019-04-19T01:23:24.786Z,8.84
2019-04-19T01:26:00.723Z,8.84
2019-04-19T01:28:28.821Z,8.86
2019-04-19T01:30:57.135Z,8.85
2019-04-19T01:33:39.964Z,8.84
2019-04-19T01:36:08.190Z,8.84
2019-04-19T01:38:44.736Z,8.84
2019-04-19T01:41:25.595Z,8.85
2019-04-19T01:44:24.100Z,8.81
2019-04-19T01:47:16.507Z,8.84
2019-04-19T01:50:07.524Z,8.85
2019-04-19T01:52:57.358Z,8.81
2019-04-19T01:55:07.898Z,8.79
2019-04-19T01:57:26.562Z,8.73
2019-04-19T01:59:59.114Z,8.74
2019-04-19T02:02:28.155Z,8.68
2019-04-19T02:05:05.263Z,8.62
2019-04-19T02:07:33.798Z,8.61
2019-04-19T02:10:13.539Z,8.54
2019-04-19T02:12:46.024Z,8.51
2019-04-19T02:15:11.356Z,8.45
2019-04-19T02:17:41.909Z,8.40
2019-04-19T02:20:11.514Z,8.33
2019-04-19T02:22:40.741Z,8.26
2019-04-19T02:25:17.407Z,8.21
2019-04-19T02:27:46.399Z,8.12
2019-04-19T02:30:27.458Z,8.15
2019-04-19T02:33:07.843Z,8.18
2019-04-19T02:35:42.293Z,8.18
2019-04-19T02:38:12.738Z,8.24
2019-04-19T02:43:24.070Z,8.30
2019-04-19T02:46:03.880Z,8.34
2019-04-19T02:48:31.823Z,8.34
2019-04-19T02:51:11.391Z,8.32
2019-04-19T02:53:23.916Z,8.31
2019-04-19T02:56:24.147Z,8.31
2019-04-19T02:58:33.763Z,8.37
2019-04-19T03:01:18.686Z,8.41
2019-04-19T03:03:39.842Z,8.42
2019-04-19T03:06:05.029Z,8.43
2019-04-19T03:08:21.396Z,8.42
2019-04-19T03:11:03.526Z,8.42
2019-04-19T03:13:36.183Z,8.36
2019-04-19T03:16:12.838Z,8.34
2019-04-19T03:18:42.595Z,8.37
2019-04-19T03:21:17.019Z,8.45
2019-04-19T03:23:39.403Z,8.45
2019-04-19T03:26:17.169Z,8.52
2019-04-19T03:28:39.861Z,8.55
2019-04-19T03:33:58.781Z,8.56
2019-04-19T03:36:22.100Z,8.59
2019-04-19T03:38:48.708Z,8.61
2019-04-19T03:41:40.742Z,8.63
2019-04-19T03:44:18.484Z,8.67
2019-04-19T03:49:30.622Z,8.71
2019-04-19T03:52:03.344Z,8.72
2019-04-19T03:54:23.572Z,8.72
2019-04-19T03:56:55.113Z,8.76
2019-04-19T03:59:09.678Z,8.81
2019-04-19T04:01:42.963Z,8.85
2019-04-19T04:04:16.670Z,8.89
2019-04-19T04:06:44.175Z,8.92
2019-04-19T04:09:33.198Z,8.97
2019-04-19T04:12:30.136Z,9.02
2019-04-19T04:15:15.559Z,9.06
2019-04-19T04:17:33.842Z,9.15
2019-04-19T04:20:03.529Z,9.29
2019-04-19T04:22:38.639Z,9.43
2019-04-19T04:25:13.384Z,9.68
2019-04-19T04:27:51.972Z,9.96
2019-04-19T04:30:19.870Z,10.17
2019-04-19T04:32:52.775Z,10.22
2019-04-19T04:35:24.330Z,10.30
2019-04-19T04:37:54.421Z,10.24
2019-04-19T04:40:12.946Z,10.22
2019-04-19T04:43:00.324Z,10.24
2019-04-19T04:45:33.098Z,11.12
2019-04-19T04:48:14.730Z,12.57
2019-04-19T04:51:23.857Z,13.39
2019-04-19T04:53:47.140Z,13.40
2019-04-19T04:56:27.451Z,12.52
2019-04-19T04:58:59.182Z,12.18
2019-04-19T05:01:40.624Z,11.85
2019-04-19T05:04:15.179Z,11.40
2019-04-19T05:06:56.388Z,11.15
2019-04-19T05:09:25.058Z,10.97
2019-04-19T05:12:00.990Z,11.49
2019-04-19T05:14:21.853Z,13.35
2019-04-19T05:17:00.409Z,15.29
2019-04-19T05:19:25.281Z,16.61
2019-04-19T05:21:56.636Z,17.27
2019-04-19T05:24:25.527Z,17.53
2019-04-19T05:27:07.829Z,18.06
2019-04-19T05:29:22.967Z,18.60
2019-04-19T05:31:48.046Z,18.41
2019-04-19T05:34:34.655Z,17.76
2019-04-19T05:37:03.770Z,17.07
2019-04-19T05:39:48.465Z,16.62
2019-04-19T05:42:47.006Z,15.99
2019-04-19T05:45:27.372Z,15.36
2019-04-19T05:47:41.473Z,14.97
2019-04-19T05:50:23.934Z,15.50
2019-04-19T05:52:48.180Z,16.29
2019-04-19T05:55:02.532Z,17.56
2019-04-19T05:57:51.888Z,17.90
2019-04-19T06:00:24.964Z,18.07
2019-04-19T06:02:50.259Z,17.61
2019-04-19T06:05:31.996Z,17.17
2019-04-19T06:07:48.779Z,17.24
2019-04-19T06:10:11.462Z,16.33
2019-04-19T06:12:42.098Z,17.26
2019-04-19T06:15:41.697Z,17.98
2019-04-19T06:18:32.018Z,19.52
2019-04-19T06:21:17.235Z,19.09
2019-04-19T06:23:43.873Z,19.93
2019-04-19T06:26:39.862Z,19.59
2019-04-19T06:28:51.408Z,18.95
2019-04-19T06:31:25.618Z,18.67
2019-04-19T06:33:49.951Z,18.25
2019-04-19T06:36:02.458Z,16.84
2019-04-19T06:38:30.798Z,16.75
2019-04-19T06:41:07.340Z,15.28
2019-04-19T06:43:43.874Z,15.16
2019-04-19T06:46:17.925Z,15.11
2019-04-19T06:48:37.812Z,14.86
2019-04-19T06:51:14.671Z,15.11
2019-04-19T06:53:44.629Z,15.62
2019-04-19T06:56:17.204Z,15.29
2019-04-19T06:58:50.454Z,15.79
2019-04-19T07:01:21.697Z,16.07
2019-04-19T07:03:42.904Z,16.22
2019-04-19T07:06:28.510Z,15.76
2019-04-19T07:09:07.800Z,15.30
2019-04-19T07:11:40.424Z,15.68
2019-04-19T07:13:56.315Z,15.58
2019-04-19T07:16:41.254Z,15.53
2019-04-19T07:19:09.877Z,15.27
2019-04-19T07:21:37.069Z,15.10
2019-04-19T07:24:18.184Z,15.18
2019-04-19T07:26:42.394Z,15.77
2019-04-19T07:28:55.793Z,15.67
2019-04-19T07:31:25.846Z,15.11
2019-04-19T07:34:08.772Z,14.84
2019-04-19T07:36:44.794Z,14.79
2019-04-19T07:39:16.999Z,14.98
2019-04-19T07:41:54.301Z,15.17
2019-04-19T07:44:37.580Z,14.83
2019-04-19T07:47:42.798Z,14.85
2019-04-19T07:50:09.282Z,15.05
2019-04-19T07:52:42.537Z,15.18
2019-04-19T07:55:08.441Z,15.91
2019-04-19T07:58:06.990Z,16.87
2019-04-19T08:03:06.868Z,17.56
2019-04-19T08:05:41.153Z,17.00
2019-04-19T08:08:24.359Z,16.66
2019-04-19T08:11:00.123Z,16.65
2019-04-19T08:13:26.382Z,16.76
2019-04-19T08:15:49.612Z,16.60
2019-04-19T08:18:26.124Z,16.47
2019-04-19T08:28:09.509Z,16.13
2019-04-19T08:30:35.955Z,16.14
2019-04-19T08:32:57.615Z,16.28
2019-04-19T08:35:27.800Z,16.74
2019-04-19T08:38:03.369Z,17.30
2019-04-19T08:40:50.502Z,17.52
2019-04-19T08:43:17.339Z,17.79
2019-04-19T08:45:56.544Z,18.10
2019-04-19T08:48:51.036Z,18.15
2019-04-19T08:51:45.285Z,18.57
2019-04-19T08:54:36.780Z,18.75
2019-04-19T08:56:55.901Z,19.64
2019-04-19T09:02:10.760Z,19.13
2019-04-19T09:04:40.640Z,19.30
2019-04-19T09:09:50.919Z,19.24
2019-04-19T09:12:12.304Z,19.24
2019-04-19T09:14:47.964Z,19.29
2019-04-19T09:17:18.980Z,19.11
2019-04-19T09:22:20.275Z,19.47
2019-04-19T09:24:45.239Z,19.19
2019-04-19T09:27:31.647Z,19.08
2019-04-19T09:29:55.223Z,19.09
2019-04-19T09:32:13.668Z,19.21
2019-04-19T09:34:43.978Z,19.43
2019-04-19T09:37:18.340Z,19.56
2019-04-19T09:39:48.812Z,19.62
2019-04-19T09:42:18.987Z,19.76
2019-04-19T09:44:48.884Z,19.46
2019-04-19T09:47:16.345Z,19.67
2019-04-19T09:50:01.503Z,19.67
2019-04-19T09:52:55.667Z,19.76
2019-04-19T09:55:09.711Z,19.77
2019-04-19T09:57:38.522Z,19.98
2019-04-19T10:00:00.923Z,19.83
2019-04-19T10:02:31.273Z,19.76
2019-04-19T10:04:55.022Z,19.76
2019-04-19T10:07:25.076Z,19.89
2019-04-19T10:10:02.804Z,19.93
2019-04-19T10:12:27.169Z,20.25
2019-04-19T10:14:57.816Z,19.85
2019-04-19T10:17:28.717Z,20.23
2019-04-19T10:19:58.506Z,20.93
2019-04-19T10:22:28.540Z,21.08
2019-04-19T10:24:58.903Z,21.38
2019-04-19T10:27:31.159Z,21.01
2019-04-19T10:30:02.222Z,21.66
2019-04-19T10:32:33.170Z,21.84
2019-04-19T10:35:04.272Z,21.29
2019-04-19T10:37:34.040Z,21.05
2019-04-19T10:40:04.008Z,21.17
2019-04-19T10:42:33.668Z,21.11
2019-04-19T10:45:03.314Z,20.68
2019-04-19T10:47:33.625Z,20.33
2019-04-19T10:50:18.325Z,19.89
2019-04-19T10:52:35.345Z,19.92
2019-04-19T10:55:04.924Z,20.26
2019-04-19T10:57:35.549Z,20.22
2019-04-19T11:00:05.406Z,20.22
2019-04-19T11:02:36.467Z,20.26
2019-04-19T11:05:07.330Z,20.14
2019-04-19T11:07:39.818Z,19.81
2019-04-19T11:10:09.761Z,19.33
2019-04-19T11:12:40.816Z,19.46
2019-04-19T11:15:10.823Z,20.14
2019-04-19T11:17:41.408Z,21.62
2019-04-19T11:20:25.115Z,22.63
2019-04-19T11:22:43.699Z,23.10
2019-04-19T11:25:14.380Z,22.64
2019-04-19T11:27:44.866Z,22.14
2019-04-19T11:30:34.965Z,21.53
2019-04-19T11:33:08.548Z,21.44
2019-04-19T11:35:43.680Z,21.22
2019-04-19T11:38:13.383Z,22.23
2019-04-19T11:40:42.942Z,22.95
2019-04-19T11:43:13.474Z,22.31
2019-04-19T11:45:44.144Z,21.92
2019-04-19T11:48:15.063Z,20.95
2019-04-19T11:50:45.480Z,21.03
2019-04-19T11:53:24.758Z,21.34
2019-04-19T11:56:16.467Z,20.94
2019-04-19T11:58:47.225Z,20.90
2019-04-19T12:01:23.824Z,21.38
2019-04-19T12:03:54.246Z,22.08
2019-04-19T12:06:24.632Z,22.70
2019-04-19T12:08:54.381Z,22.42
2019-04-19T12:11:24.374Z,22.22
2019-04-19T12:13:54.203Z,21.78
2019-04-19T12:16:23.897Z,21.30
2019-04-19T12:18:54.051Z,20.90
2019-04-19T12:21:25.097Z,21.45
2019-04-19T12:23:55.027Z,22.38
2019-04-19T12:26:24.529Z,23.34
2019-04-19T12:28:55.578Z,23.36
2019-04-19T12:31:27.405Z,22.12
2019-04-19T12:33:57.814Z,22.20
2019-04-19T12:36:28.831Z,23.46
2019-04-19T12:38:58.865Z,23.50
2019-04-19T12:41:28.431Z,23.49
2019-04-19T12:43:59.363Z,24.06
2019-04-19T12:46:29.169Z,24.55
2019-04-19T12:48:58.768Z,24.82
2019-04-19T12:51:28.317Z,25.54
2019-04-19T12:53:58.203Z,25.62
2019-04-19T12:56:27.892Z,24.51
2019-04-19T12:58:57.879Z,24.58
2019-04-19T13:01:33.111Z,25.12
2019-04-19T13:04:08.558Z,24.75
2019-04-19T13:06:39.828Z,23.29
2019-04-19T13:09:11.319Z,22.30
2019-04-19T13:11:41.172Z,21.86
2019-04-19T13:14:12.133Z,21.35
2019-04-19T13:16:42.113Z,20.73
2019-04-19T13:19:12.282Z,19.92
2019-04-19T13:21:42.687Z,16.78
2019-04-19T13:24:14.116Z,15.03
2019-04-19T13:26:45.163Z,12.98
2019-04-19T13:29:15.654Z,11.93
2019-04-19T13:31:47.276Z,11.05
2019-04-19T13:34:17.235Z,10.35
2019-04-19T13:37:05.180Z,10.11
2019-04-19T13:39:52.223Z,10.08
2019-04-19T13:42:24.409Z,9.94
2019-04-19T13:45:01.974Z,9.78
2019-04-19T13:47:26.790Z,9.70
2019-04-19T13:49:56.589Z,9.60
2019-04-19T13:52:26.429Z,9.61
2019-04-19T13:54:56.824Z,9.63
2019-04-19T13:57:27.940Z,9.61
2019-04-19T14:00:00.644Z,9.62
2019-04-19T14:02:29.435Z,9.66
2019-04-19T14:04:59.765Z,9.80
2019-04-19T14:07:30.723Z,9.87
2019-04-19T14:10:01.158Z,9.98
2019-04-19T14:12:31.267Z,9.95
2019-04-19T14:15:01.022Z,9.94
2019-04-19T14:17:31.685Z,10.04
2019-04-19T14:20:01.330Z,10.12
2019-04-19T14:22:31.795Z,10.21
2019-04-19T14:25:01.572Z,10.23
2019-04-19T14:27:31.231Z,10.25
2019-04-19T14:30:01.584Z,10.28
2019-04-19T14:32:31.631Z,10.38
2019-04-19T14:35:01.710Z,10.43
2019-04-19T14:37:32.105Z,10.54
2019-04-19T14:40:02.767Z,10.70
2019-04-19T14:42:32.809Z,10.86
2019-04-19T14:45:03.795Z,10.96
2019-04-19T14:47:33.424Z,11.11
2019-04-19T14:50:03.239Z,11.18
2019-04-19T14:52:34.293Z,11.19
2019-04-19T14:55:10.092Z,11.25
2019-04-19T14:57:40.850Z,11.28
2019-04-19T15:00:12.746Z,11.35
2019-04-19T15:02:56.735Z,11.35
2019-04-19T15:05:32.378Z,11.18
2019-04-19T15:08:02.342Z,11.26
2019-04-19T15:10:32.025Z,11.22
2019-04-19T15:13:02.858Z,11.08
2019-04-19T15:15:33.583Z,11.10
2019-04-19T15:18:04.464Z,11.17
2019-04-19T15:20:34.179Z,11.02
2019-04-19T15:23:04.483Z,10.91
2019-04-19T15:25:34.742Z,10.90
2019-04-19T15:28:04.665Z,10.95
2019-04-19T15:30:35.043Z,10.99
2019-04-19T15:33:04.861Z,11.08
2019-04-19T15:35:34.527Z,11.10
2019-04-19T15:38:04.223Z,11.18
2019-04-19T15:40:34.167Z,11.27
2019-04-19T15:43:05.239Z,11.27
2019-04-19T15:45:35.039Z,11.35
2019-04-19T15:48:04.901Z,11.32
2019-04-19T15:50:35.846Z,11.25
2019-04-19T15:53:06.197Z,11.28
2019-04-19T15:55:35.890Z,11.28
2019-04-19T15:58:06.455Z,11.25
2019-04-19T16:00:48.539Z,11.16
2019-04-19T16:03:36.181Z,11.14
2019-04-19T16:06:28.048Z,11.07
2019-04-19T16:09:17.172Z,11.03
2019-04-19T16:11:54.585Z,11.06
2019-04-19T16:14:24.302Z,11.05
2019-04-19T16:16:55.118Z,11.03
2019-04-19T16:19:26.104Z,10.97
2019-04-19T16:21:59.099Z,10.95
2019-04-19T16:24:27.339Z,10.97
2019-04-19T16:26:57.387Z,11.00
2019-04-19T16:29:35.444Z,11.00
2019-04-19T16:31:58.792Z,10.99
2019-04-19T16:34:29.246Z,10.91
2019-04-19T16:36:58.954Z,10.82
2019-04-19T16:39:31.195Z,10.79
2019-04-19T16:42:00.852Z,10.69
2019-04-19T16:44:31.723Z,10.62
2019-04-19T16:47:01.498Z,10.50
2019-04-19T16:49:31.099Z,10.42
2019-04-19T16:52:01.030Z,10.36
2019-04-19T16:54:30.668Z,10.28
2019-04-19T16:57:12.188Z,10.16
2019-04-19T16:59:32.148Z,10.06
2019-04-19T17:02:02.231Z,9.94
2019-04-19T17:04:32.478Z,9.87
2019-04-19T17:07:02.658Z,9.78
2019-04-19T17:09:32.992Z,9.70
2019-04-19T17:12:02.932Z,9.68
2019-04-19T17:14:32.681Z,9.70
2019-04-19T17:17:12.860Z,9.74
2019-04-19T17:20:02.823Z,9.84
2019-04-19T17:22:40.886Z,9.89
2019-04-19T17:25:12.970Z,9.94
2019-04-19T17:27:43.236Z,10.00
2019-04-19T17:30:14.850Z,10.01
2019-04-19T17:32:46.196Z,9.95
2019-04-19T17:35:16.452Z,9.87
2019-04-19T17:37:46.313Z,9.76
2019-04-19T17:40:16.504Z,9.68
2019-04-19T17:42:46.507Z,9.62
2019-04-19T17:45:16.182Z,9.58
2019-04-19T17:47:47.418Z,9.51
2019-04-19T17:50:18.653Z,9.46
2019-04-19T17:52:48.737Z,9.39
2019-04-19T17:55:25.814Z,9.30
2019-04-19T17:57:49.733Z,9.22
2019-04-19T18:00:19.771Z,9.18
2019-04-19T18:02:49.354Z,9.09
2019-04-19T18:05:20.130Z,9.02
2019-04-19T18:07:52.034Z,8.98
2019-04-19T18:10:23.448Z,8.99
2019-04-19T18:12:53.075Z,9.03
2019-04-19T18:15:23.652Z,9.09
2019-04-19T18:17:59.998Z,9.04
2019-04-19T18:20:26.362Z,8.99
2019-04-19T18:23:04.903Z,8.92
2019-04-19T18:25:33.084Z,8.92
2019-04-19T18:28:01.339Z,8.94
2019-04-19T18:30:34.555Z,8.99
2019-04-19T18:33:12.564Z,8.95
2019-04-19T18:35:42.397Z,8.89
2019-04-19T18:38:19.559Z,8.81
2019-04-19T18:40:45.166Z,8.73
2019-04-19T18:43:27.108Z,8.61
2019-04-19T18:45:46.072Z,8.50
2019-04-19T18:48:15.744Z,8.48
2019-04-19T18:50:48.736Z,8.42
2019-04-19T18:53:25.987Z,8.34
2019-04-19T18:55:51.478Z,8.26
2019-04-19T18:58:26.065Z,8.18
2019-04-19T19:00:53.623Z,8.07
2019-04-19T19:03:22.357Z,8.06
2019-04-19T19:05:58.949Z,8.09
2019-04-19T19:08:28.553Z,8.06
2019-04-19T19:10:56.923Z,8.04
2019-04-19T19:13:30.684Z,8.04
2019-04-19T19:15:58.219Z,8.02
2019-04-19T19:18:35.306Z,7.97
2019-04-19T19:21:01.376Z,7.96
2019-04-19T19:23:43.384Z,7.99
2019-04-19T19:26:12.910Z,7.98
2019-04-19T19:28:33.954Z,7.98
2019-04-19T19:31:04.824Z,7.93
2019-04-19T19:33:41.876Z,7.95
2019-04-19T19:36:07.177Z,7.93
2019-04-19T19:38:40.172Z,7.92
2019-04-19T19:41:24.049Z,7.90
2019-04-19T19:43:53.630Z,7.84
2019-04-19T19:46:31.739Z,7.76
2019-04-19T19:49:27.171Z,7.66
2019-04-19T19:51:28.218Z,7.52
2019-04-19T19:54:29.785Z,7.56
2019-04-19T19:59:05.444Z,7.69
2019-04-19T20:01:33.370Z,7.75
2019-04-19T20:03:52.422Z,7.78
2019-04-19T20:06:25.901Z,7.88
2019-04-19T20:08:55.859Z,7.99
2019-04-19T20:11:29.991Z,7.97
2019-04-19T20:13:59.401Z,7.97
2019-04-19T20:16:30.669Z,7.97
2019-04-19T20:19:01.968Z,8.00
2019-04-19T20:21:30.513Z,8.01
2019-04-19T20:24:12.602Z,8.03
2019-04-19T20:26:38.775Z,8.03
2019-04-19T20:29:08.700Z,8.10
2019-04-19T20:31:37.414Z,8.22
2019-04-19T20:34:07.119Z,8.36
2019-04-19T20:36:40.456Z,8.45
2019-04-19T20:39:09.473Z,8.56
2019-04-19T20:41:45.850Z,8.65
2019-04-19T20:44:28.301Z,8.68
2019-04-19T20:46:42.151Z,8.71
2019-04-19T20:49:13.224Z,8.72
2019-04-19T20:51:56.650Z,8.73
2019-04-19T20:54:41.647Z,8.73
2019-04-19T20:57:29.848Z,8.74
2019-04-19T20:59:50.269Z,8.74
2019-04-19T21:02:22.359Z,8.70
2019-04-19T21:04:51.031Z,8.62
2019-04-19T21:07:19.701Z,8.48
2019-04-19T21:09:47.552Z,8.36
2019-04-19T21:12:24.029Z,8.20
2019-04-19T21:14:48.881Z,8.11
2019-04-19T21:17:18.759Z,8.03
2019-04-19T21:19:51.253Z,7.96
2019-04-19T21:22:25.544Z,7.87
2019-04-19T21:25:02.141Z,7.81
2019-04-19T21:27:28.441Z,7.71
2019-04-19T21:29:56.506Z,7.62
2019-04-19T21:32:29.106Z,7.53
2019-04-19T21:35:01.012Z,7.51
2019-04-19T21:37:36.026Z,7.44
2019-04-19T21:39:59.699Z,7.46
2019-04-19T21:42:29.658Z,7.49
2019-04-19T21:45:02.834Z,7.50
2019-04-19T21:47:34.021Z,7.51
2019-04-19T21:50:03.088Z,7.48
2019-04-19T21:52:33.792Z,7.47
2019-04-19T21:55:16.146Z,7.43
2019-04-19T21:57:38.002Z,7.35
2019-04-19T22:00:13.189Z,7.29
2019-04-19T22:02:44.998Z,7.17
2019-04-19T22:05:13.332Z,7.06
2019-04-19T22:07:46.360Z,6.92
2019-04-19T22:10:14.932Z,6.89
2019-04-19T22:12:50.059Z,6.79
2019-04-19T22:15:16.203Z,6.74
2019-04-19T22:17:54.421Z,6.76
2019-04-19T22:20:22.576Z,6.76
2019-04-19T22:22:54.723Z,6.72
2019-04-19T22:25:38.635Z,6.66
2019-04-19T22:27:53.723Z,6.62
2019-04-19T22:30:23.543Z,6.58
2019-04-19T22:32:56.497Z,6.55
2019-04-19T22:35:27.010Z,6.53
2019-04-19T22:37:56.768Z,6.50
2019-04-19T22:40:26.876Z,6.46
2019-04-19T22:43:03.231Z,6.38
2019-04-19T22:45:28.676Z,6.39
2019-04-19T22:48:05.773Z,6.32
2019-04-19T22:50:34.152Z,6.29
2019-04-19T22:53:01.002Z,6.27
2019-04-19T22:55:43.233Z,6.24
2019-04-19T22:58:03.058Z,6.22
2019-04-19T23:00:39.981Z,6.22
2019-04-19T23:03:25.104Z,6.21
2019-04-19T23:05:48.306Z,6.20
2019-04-19T23:08:26.088Z,6.19
2019-04-19T23:10:54.492Z,6.18
2019-04-19T23:13:23.091Z,6.23
2019-04-19T23:15:57.213Z,6.24
2019-04-19T23:18:25.828Z,6.24
2019-04-19T23:21:02.754Z,6.21
2019-04-19T23:23:30.660Z,6.16
2019-04-19T23:26:13.127Z,6.13
2019-04-19T23:28:34.024Z,6.08
2019-04-19T23:31:05.358Z,6.06
2019-04-19T23:33:32.423Z,6.07
2019-04-19T23:36:06.212Z,6.07
2019-04-19T23:38:34.431Z,6.03
2019-04-19T23:41:04.008Z,6.01
2019-04-19T23:43:36.998Z,6.01
2019-04-19T23:46:08.586Z,6.08
2019-04-19T23:48:37.323Z,6.14
2019-04-19T23:51:08.404Z,6.14
2019-04-19T23:53:41.390Z,6.14
2019-04-19T23:56:20.074Z,6.15
2019-04-19T23:58:42.601Z,6.21
